Time;durP1;ratioP1;P1;durP2;ratioP2;P2;SDS_P1;SDS_P2;PMS_P1;PMS_P2;Temp;Humidity;BMP_temperature;BMP_pressure;BME280_temperature;BME280_humidity;BME280_pressure;Samples;Min_cycle;Max_cycle;Signal;HPM_P1;HPM_P2
2022/10/07 00:03:37;;;;;;;0.98;0.40;;;;;;;17.85;100.00;102329.53;21141812;27;20099;-74
2022/10/07 00:13:40;;;;;;;1.17;0.70;;;;;;;17.82;100.00;102315.28;21212260;27;20043;-76
2022/10/07 00:23:42;;;;;;;1.75;0.60;;;;;;;17.87;100.00;102317.66;21235728;27;20402;-75
2022/10/07 00:33:44;;;;;;;0.93;0.40;;;;;;;17.87;100.00;102319.50;21237647;27;20070;-75
2022/10/07 00:43:48;;;;;;;0.98;0.60;;;;;;;17.87;100.00;102298.81;21220790;27;20126;-75
2022/10/07 00:53:51;;;;;;;1.13;0.80;;;;;;;17.85;100.00;102295.34;21191003;27;20081;-75
2022/10/07 01:03:53;;;;;;;1.08;0.40;;;;;;;17.80;100.00;102270.56;21177177;27;20058;-75
2022/10/07 01:14:08;;;;;;;1.25;0.50;;;;;;;17.83;100.00;102263.16;21238416;27;20054;-75
2022/10/07 01:24:30;;;;;;;0.70;0.50;;;;;;;17.76;100.00;102240.28;21238201;27;20054;-75
2022/10/07 01:34:34;;;;;;;0.80;0.50;;;;;;;17.82;100.00;102239.88;21222937;27;20086;-74
2022/10/07 01:44:36;;;;;;;1.67;0.75;;;;;;;17.71;100.00;102207.41;21187122;27;20066;-75
2022/10/07 01:55:05;;;;;;;0.63;0.40;;;;;;;17.53;100.00;102144.88;21160870;27;20050;-75
2022/10/07 02:05:32;;;;;;;1.60;0.45;;;;;;;17.82;100.00;102182.41;21219843;27;20130;-75
2022/10/07 02:16:16;;;;;;;0.98;0.50;;;;;;;17.80;100.00;102171.75;21219245;27;20043;-74
2022/10/07 02:26:20;;;;;;;1.20;0.60;;;;;;;17.80;100.00;102163.69;21128904;27;20043;-75
2022/10/07 02:36:26;;;;;;;1.05;0.57;;;;;;;17.76;100.00;102146.00;21217253;27;20050;-74
2022/10/07 02:46:30;;;;;;;0.75;0.50;;;;;;;17.78;100.00;102133.28;21198916;27;20084;-75
2022/10/07 02:56:35;;;;;;;1.50;0.45;;;;;;;17.66;100.00;102099.09;21102006;27;20050;-75
2022/10/07 03:06:37;;;;;;;0.65;0.45;;;;;;;17.78;100.00;102118.94;21198844;27;20035;-75
2022/10/07 03:16:39;;;;;;;0.82;0.50;;;;;;;17.78;100.00;102108.19;21213605;27;20042;-75
2022/10/07 03:26:41;;;;;;;0.88;0.40;;;;;;;17.64;100.00;102076.81;21213213;27;20043;-75
2022/10/07 03:36:45;;;;;;;0.80;0.40;;;;;;;17.77;100.00;102080.41;21212537;27;20476;-75
2022/10/07 03:46:48;;;;;;;1.15;0.57;;;;;;;17.76;100.00;102073.28;21211952;27;20491;-74
2022/10/07 03:56:51;;;;;;;1.07;0.50;;;;;;;17.76;100.00;102061.63;21160638;27;20092;-74
2022/10/07 04:06:53;;;;;;;1.02;0.40;;;;;;;17.63;100.00;102040.94;21210413;27;20043;-74
2022/10/07 04:16:56;;;;;;;0.75;0.35;;;;;;;17.75;100.00;102051.81;21210703;27;20043;-75
2022/10/07 04:26:57;;;;;;;3.25;0.57;;;;;;;17.73;100.00;102046.56;21192722;27;20039;-75
2022/10/07 04:37:00;;;;;;;1.25;0.70;;;;;;;17.74;100.00;102029.44;21192826;27;20111;-75
2022/10/07 04:47:04;;;;;;;0.40;0.30;;;;;;;17.73;100.00;102025.03;21174179;27;20049;-75
2022/10/07 04:57:08;;;;;;;0.40;0.30;;;;;;;17.73;100.00;102022.31;21051154;27;20041;-75
2022/10/07 05:07:10;;;;;;;0.95;0.30;;;;;;;17.73;100.00;102016.94;20748684;27;20401;-74
2022/10/07 05:17:12;;;;;;;0.73;0.40;;;;;;;17.73;100.00;102007.97;20753970;27;20049;-74
2022/10/07 05:27:14;;;;;;;0.40;0.30;;;;;;;17.73;100.00;102007.97;20739726;27;20410;-74
2022/10/07 05:37:16;;;;;;;0.88;0.30;;;;;;;17.56;100.00;101980.41;20963803;27;20523;-74
2022/10/07 05:47:19;;;;;;;1.00;0.43;;;;;;;17.47;100.00;101959.53;20767145;27;20420;-74
2022/10/07 05:57:22;;;;;;;0.40;0.30;;;;;;;17.71;100.00;101991.94;20929493;27;20099;-74
2022/10/07 06:07:24;;;;;;;0.90;0.45;;;;;;;17.71;100.00;101988.38;20790314;27;20041;-74
2022/10/07 06:17:31;;;;;;;0.40;0.38;;;;;;;17.71;100.00;101991.94;21127883;27;20132;-74
2022/10/07 06:27:34;;;;;;;1.20;0.40;;;;;;;17.68;100.00;101994.84;20784033;27;20045;-74
2022/10/07 06:37:38;;;;;;;0.52;0.28;;;;;;;17.71;100.00;102004.53;20829610;27;20131;-74
2022/10/07 06:47:41;;;;;;;0.55;0.45;;;;;;;17.71;100.00;101999.16;20886942;27;20125;-74
2022/10/07 06:57:44;;;;;;;1.73;0.80;;;;;;;17.70;100.00;102009.06;20806896;27;20092;-74
2022/10/07 07:07:50;;;;;;;0.60;0.30;;;;;;;17.71;100.00;102000.03;20732915;27;20117;-74
2022/10/07 07:17:52;;;;;;;1.17;0.70;;;;;;;17.71;100.00;102005.41;20733286;27;20513;-74
2022/10/07 07:27:55;;;;;;;0.55;0.25;;;;;;;17.72;100.00;101993.66;20730758;27;20064;-74
2022/10/07 07:37:59;;;;;;;1.23;0.50;;;;;;;17.76;100.00;101987.09;20716265;27;20055;-75
2022/10/07 07:48:02;;;;;;;0.30;0.30;;;;;;;17.38;100.00;101901.81;20743111;27;20048;-74
2022/10/07 07:58:07;;;;;;;1.67;0.75;;;;;;;17.86;100.00;101970.28;20728913;27;20076;-74
2022/10/07 08:08:13;;;;;;;0.60;0.40;;;;;;;17.79;100.00;101951.84;20722526;27;20554;-75
2022/10/07 08:18:16;;;;;;;0.50;0.40;;;;;;;17.92;100.00;101964.44;20741352;27;20049;-74
2022/10/07 08:28:18;;;;;;;3.67;0.60;;;;;;;17.94;100.00;101967.88;20711230;27;20114;-74
2022/10/07 08:38:19;;;;;;;3.35;0.88;;;;;;;17.94;100.00;101957.09;20696647;27;20046;-73
2022/10/07 08:48:24;;;;;;;3.78;1.30;;;;;;;17.92;100.00;101943.75;20733415;27;20064;-74
2022/10/07 08:58:42;;;;;;;4.13;1.10;;;;;;;18.03;100.00;101917.91;20716599;27;20175;-74
2022/10/07 09:08:47;;;;;;;3.28;1.15;;;;;;;18.14;100.00;101917.13;20714951;27;20051;-75
2022/10/07 09:18:58;;;;;;;6.83;1.50;;;;;;;18.08;100.00;101886.06;20723907;27;20121;-74
2022/10/07 09:29:00;;;;;;;3.95;0.90;;;;;;;18.23;100.00;101897.56;20735228;27;20060;-74
2022/10/07 09:39:15;;;;;;;4.68;1.83;;;;;;;18.10;100.00;101858.03;20737556;28;20068;-74
2022/10/07 09:49:29;;;;;;;4.05;1.60;;;;;;;18.37;100.00;101881.19;20754910;27;20057;-74
2022/10/07 09:59:32;;;;;;;5.13;1.25;;;;;;;18.42;100.00;101867.38;20713030;27;20191;-75
2022/10/07 10:09:34;;;;;;;5.32;1.77;;;;;;;18.17;100.00;101803.69;20734519;27;20061;-75
2022/10/07 10:19:35;;;;;;;3.65;1.20;;;;;;;18.24;100.00;101813.03;20734395;27;20056;-74
2022/10/07 10:30:02;;;;;;;2.80;1.15;;;;;;;18.41;100.00;101836.00;20727932;27;20413;-74
2022/10/07 10:40:17;;;;;;;3.15;1.27;;;;;;;17.61;100.00;101692.84;20733838;27;20067;-76
2022/10/07 10:50:44;;;;;;;3.25;1.00;;;;;;;18.40;100.00;101801.94;20722100;27;20053;-75
2022/10/07 11:00:52;;;;;;;4.00;1.10;;;;;;;18.40;100.00;101791.16;20731683;27;20068;-74
2022/10/07 11:11:06;;;;;;;2.45;0.95;;;;;;;18.37;100.00;101776.06;20742979;27;20049;-74
2022/10/07 11:21:13;;;;;;;2.70;1.00;;;;;;;18.44;100.00;101775.59;20726898;27;20054;-75
2022/10/07 11:31:23;;;;;;;2.55;0.98;;;;;;;18.32;100.00;101732.44;20715049;27;20061;-74
2022/10/07 11:41:34;;;;;;;3.13;0.90;;;;;;;18.53;100.00;101715.53;20726680;27;20049;-74
2022/10/07 11:52:01;;;;;;;3.22;1.23;;;;;;;18.58;100.00;101707.09;20722281;27;20053;-74
2022/10/07 12:02:03;;;;;;;2.20;0.82;;;;;;;18.49;100.00;101669.09;20710323;27;20050;-74
2022/10/07 12:12:11;;;;;;;2.42;0.90;;;;;;;18.63;100.00;101684.19;20722406;27;20054;-75
2022/10/07 12:22:13;;;;;;;5.07;1.00;;;;;;;18.55;100.00;101660.53;20731141;27;20115;-75
2022/10/07 12:32:55;;;;;;;4.20;1.08;;;;;;;18.65;100.00;101649.88;20714515;27;20054;-74
2022/10/07 12:43:09;;;;;;;3.25;1.50;;;;;;;18.44;100.00;101605.72;20724661;27;20409;-74
2022/10/07 12:53:11;;;;;;;2.78;0.70;;;;;;;18.67;100.00;101629.03;20709547;27;20498;-75
2022/10/07 13:03:20;;;;;;;1.42;0.80;;;;;;;18.69;100.00;101621.66;20706583;27;20442;-74
2022/10/07 13:13:47;;;;;;;1.67;0.88;;;;;;;18.70;100.00;101607.19;20711455;27;20058;-74
2022/10/07 13:23:53;;;;;;;3.97;1.00;;;;;;;18.54;100.00;101582.44;20702883;27;20398;-76
2022/10/07 13:33:57;;;;;;;2.40;0.80;;;;;;;18.65;100.00;101595.94;20717504;27;21396;-76
2022/10/07 13:44:02;;;;;;;2.72;0.60;;;;;;;18.61;100.00;101572.03;20718642;27;20122;-75
2022/10/07 13:54:05;;;;;;;2.22;0.80;;;;;;;18.56;100.00;101548.16;20728728;27;20049;-74
2022/10/07 14:04:30;;;;;;;1.92;0.80;;;;;;;18.52;100.00;101541.25;20705893;27;20456;-75
2022/10/07 14:14:38;;;;;;;1.47;0.60;;;;;;;18.47;100.00;101532.69;20718198;27;20061;-79
2022/10/07 14:24:40;;;;;;;2.63;0.73;;;;;;;18.43;100.00;101518.63;20737779;27;20049;-74
2022/10/07 14:45:07;;;;;;;2.42;1.10;;;;;;;18.35;100.00;101505.75;20736426;27;20241;-74
2022/10/07 14:55:23;;;;;;;1.40;0.55;;;;;;;18.34;100.00;101497.78;20755827;27;20069;-75
2022/10/07 15:05:25;;;;;;;1.48;0.60;;;;;;;18.30;100.00;101483.72;20715547;27;20065;-74
2022/10/07 15:15:27;;;;;;;1.65;0.65;;;;;;;18.30;100.00;101466.66;20699242;27;20061;-74
2022/10/07 15:25:31;;;;;;;1.25;0.50;;;;;;;18.23;100.00;101458.25;20714051;27;20050;-75
2022/10/07 15:35:34;;;;;;;1.10;0.55;;;;;;;18.26;100.00;101453.44;20707579;27;20106;-76
2022/10/07 15:45:43;;;;;;;1.10;0.60;;;;;;;18.25;100.00;101446.34;20701055;27;20060;-76
2022/10/07 15:56:03;;;;;;;1.27;0.73;;;;;;;18.24;100.00;101441.09;20697295;27;20057;-75
2022/10/07 16:06:08;;;;;;;1.20;0.70;;;;;;;18.23;100.00;101455.56;20705803;27;20049;-76
2022/10/07 16:16:13;;;;;;;1.00;0.57;;;;;;;18.23;100.00;101444.78;20719887;27;20167;-76
2022/10/07 16:26:18;;;;;;;0.80;0.50;;;;;;;18.21;100.00;101425.19;20720332;27;20050;-75
2022/10/07 16:36:22;;;;;;;1.40;0.57;;;;;;;17.90;100.00;101369.25;20766696;27;20139;-75
2022/10/07 16:46:23;;;;;;;1.38;0.68;;;;;;;18.20;100.00;101402.75;20790795;27;20045;-75
2022/10/07 16:56:25;;;;;;;1.08;0.60;;;;;;;18.09;100.00;101390.16;20756821;27;20045;-75
2022/10/07 17:06:29;;;;;;;0.90;0.43;;;;;;;18.19;100.00;101408.28;20786698;27;20077;-76
2022/10/07 17:16:36;;;;;;;1.95;0.50;;;;;;;18.18;100.00;101393.09;20746681;27;20064;-76
2022/10/07 17:26:38;;;;;;;0.88;0.60;;;;;;;18.17;100.00;101383.28;20927626;27;20072;-76
2022/10/07 17:36:40;;;;;;;0.95;0.50;;;;;;;17.82;100.00;101333.97;20937998;27;20043;-76
2022/10/07 17:46:42;;;;;;;1.10;0.57;;;;;;;18.17;100.00;101388.69;21224209;27;20499;-76
2022/10/07 17:56:43;;;;;;;1.05;0.50;;;;;;;17.83;100.00;101323.09;21221724;27;20088;-76
2022/10/07 18:06:45;;;;;;;0.47;0.45;;;;;;;18.16;100.00;101384.28;21222470;27;20104;-76
2022/10/07 18:16:47;;;;;;;1.10;0.90;;;;;;;18.15;100.00;101371.78;21221063;27;20445;-76
2022/10/07 18:26:48;;;;;;;0.68;0.50;;;;;;;18.15;100.00;101366.41;21222089;27;20047;-76
2022/10/07 18:36:50;;;;;;;0.43;0.40;;;;;;;18.13;100.00;101360.28;21165681;27;20125;-76
2022/10/07 18:46:57;;;;;;;0.70;0.40;;;;;;;18.13;100.00;101346.81;21220095;27;20078;-76
2022/10/07 18:56:58;;;;;;;1.20;0.47;;;;;;;18.12;100.00;101345.94;21219819;27;20513;-76
2022/10/07 19:07:00;;;;;;;0.63;0.50;;;;;;;18.11;100.00;101334.28;21218739;27;20047;-76
2022/10/07 19:17:01;;;;;;;2.13;0.50;;;;;;;18.12;100.00;101332.47;21218603;27;20074;-76
2022/10/07 19:27:03;;;;;;;1.10;0.50;;;;;;;18.11;100.00;101323.50;21183788;27;20058;-76
2022/10/07 19:37:04;;;;;;;1.08;0.50;;;;;;;17.96;100.00;101292.44;21173675;27;20104;-76
2022/10/07 19:47:06;;;;;;;0.65;0.38;;;;;;;18.10;100.00;101305.63;21215997;27;20615;-76
2022/10/07 19:57:08;;;;;;;0.50;0.40;;;;;;;18.00;100.00;101288.50;21215403;27;20050;-77
2022/10/07 20:07:10;;;;;;;0.68;0.40;;;;;;;18.00;100.00;101277.72;21214508;27;20511;-77
2022/10/07 20:17:11;;;;;;;0.25;0.25;;;;;;;18.08;100.00;101286.06;21212692;27;20078;-76
2022/10/07 20:27:13;;;;;;;1.15;0.40;;;;;;;18.09;100.00;101281.53;21167567;27;20051;-76
2022/10/07 20:37:18;;;;;;;1.77;0.45;;;;;;;18.08;100.00;101269.88;21222653;27;20388;-76
2022/10/07 20:47:21;;;;;;;1.15;0.50;;;;;;;17.87;100.00;101217.78;21229176;27;20049;-76
2022/10/07 20:57:26;;;;;;;0.77;0.47;;;;;;;18.05;100.00;101243.19;21229328;27;20503;-76
2022/10/07 21:07:27;;;;;;;0.97;0.40;;;;;;;18.06;100.00;101244.91;21227267;27;20134;-76
2022/10/07 21:17:29;;;;;;;0.73;0.32;;;;;;;18.05;100.00;101228.88;21227615;27;20055;-76
2022/10/07 21:27:30;;;;;;;1.25;0.45;;;;;;;18.00;100.00;101218.47;21159872;27;20104;-76
2022/10/07 21:37:32;;;;;;;0.65;0.45;;;;;;;18.03;100.00;101185.91;21226175;27;20058;-76
2022/10/07 21:47:33;;;;;;;0.73;0.47;;;;;;;18.05;100.00;101191.19;21224002;27;20051;-76
2022/10/07 21:57:36;;;;;;;1.35;0.40;;;;;;;18.03;100.00;101185.91;21224437;27;20043;-76
2022/10/07 22:17:57;;;;;;;0.57;0.57;;;;;;;18.03;100.00;101168.91;21222890;27;20082;-76
2022/10/07 22:27:59;;;;;;;0.63;0.57;;;;;;;18.03;100.00;101168.91;21133790;27;20047;-76
2022/10/07 22:38:00;;;;;;;1.13;0.57;;;;;;;18.02;100.00;101159.94;21219395;27;20047;-76
2022/10/07 22:48:02;;;;;;;0.57;0.40;;;;;;;17.63;100.00;101098.53;21219942;27;20046;-76
2022/10/07 22:58:04;;;;;;;1.05;0.30;;;;;;;18.01;100.00;101144.78;21216207;27;20616;-76
2022/10/07 23:08:05;;;;;;;0.77;0.50;;;;;;;17.75;100.00;101107.44;21217063;27;20054;-76
2022/10/07 23:18:07;;;;;;;0.82;0.35;;;;;;;18.00;100.00;101137.63;21216773;27;20047;-77
2022/10/07 23:28:08;;;;;;;0.57;0.40;;;;;;;17.99;100.00;101135.94;21156622;27;20039;-77
2022/10/07 23:38:10;;;;;;;0.60;0.35;;;;;;;18.00;100.00;101147.56;21215413;27;20495;-77
2022/10/07 23:48:13;;;;;;;0.50;0.30;;;;;;;17.98;100.00;101156.66;21197530;27;20484;-76
2022/10/07 23:58:17;;;;;;;0.82;0.40;;;;;;;17.99;100.00;101141.31;21213725;27;20130;-76
